createdAt,value
2024-02-18T00:00:27.325Z,102943.25
2024-02-18T00:02:57.276Z,102943.25
2024-02-18T00:05:27.152Z,102953.31
2024-02-18T00:07:56.999Z,102943.25
2024-02-18T00:10:29.591Z,102944.91
2024-02-18T00:12:59.595Z,102949.53
2024-02-18T00:15:29.547Z,102945.44
2024-02-18T00:17:59.477Z,102941.09
2024-02-18T00:20:29.443Z,102946.00
2024-02-18T00:22:59.266Z,102947.63
2024-02-18T00:25:31.732Z,102941.09
2024-02-18T00:28:01.796Z,102940.28
2024-02-18T00:30:31.995Z,102937.28
2024-02-18T00:33:02.046Z,102932.94
2024-02-18T00:35:31.961Z,102931.31
2024-02-18T00:38:01.812Z,102931.84
2024-02-18T00:40:34.327Z,102932.16
2024-02-18T00:43:04.384Z,102927.53
2024-02-18T00:45:34.474Z,102925.34
2024-02-18T00:48:04.482Z,102918.84
2024-02-18T00:50:34.381Z,102923.19
2024-02-18T00:53:04.272Z,102921.56
2024-02-18T00:55:36.728Z,102915.59
2024-02-18T00:58:07.193Z,102915.06
2024-02-18T01:00:37.136Z,102913.44
2024-02-18T01:03:08.026Z,102909.91
2024-02-18T01:05:38.038Z,102911.81
2024-02-18T01:08:08.592Z,102908.00
2024-02-18T01:10:41.203Z,102908.31
2024-02-18T01:13:11.274Z,102902.59
2024-02-18T01:15:41.702Z,102914.00
2024-02-18T01:18:11.763Z,102908.31
2024-02-18T01:20:41.761Z,102904.78
2024-02-18T01:23:11.964Z,102900.16
2024-02-18T01:25:44.488Z,102896.34
2024-02-18T01:28:14.442Z,102895.25
2024-02-18T01:30:44.388Z,102893.34
2024-02-18T01:33:14.291Z,102892.81
2024-02-18T01:35:44.159Z,102888.22
2024-02-18T01:38:14.022Z,102890.66
2024-02-18T01:40:46.711Z,102885.22
2024-02-18T01:43:19.547Z,102886.56
2024-02-18T01:45:50.805Z,102884.13
2024-02-18T01:48:23.488Z,102883.28
2024-02-18T01:50:53.513Z,102880.03
2024-02-18T01:53:23.640Z,102871.59
2024-02-18T01:55:56.391Z,102872.41
2024-02-18T01:58:26.489Z,102860.72
2024-02-18T02:00:58.054Z,102860.72
2024-02-18T02:03:28.405Z,102861.78
2024-02-18T02:05:58.931Z,102860.97
2024-02-18T02:08:29.649Z,102865.88
2024-02-18T02:11:02.807Z,102863.97
2024-02-18T02:13:32.904Z,102866.69
2024-02-18T02:16:03.511Z,102862.88
2024-02-18T02:18:33.516Z,102864.50
2024-02-18T02:21:03.648Z,102855.81
2024-02-18T02:23:35.455Z,102852.53
2024-02-18T02:26:08.915Z,102847.63
2024-02-18T02:28:44.593Z,102845.47
2024-02-18T02:31:17.999Z,102840.84
2024-02-18T02:33:48.096Z,102837.03
2024-02-18T02:36:19.072Z,102837.31
2024-02-18T02:38:49.085Z,102837.03
2024-02-18T02:41:19.734Z,102828.34
2024-02-18T02:43:49.670Z,102835.41
2024-02-18T02:46:22.127Z,102823.72
2024-02-18T02:48:52.502Z,102832.97
2024-02-18T02:51:22.587Z,102831.31
2024-02-18T02:53:52.535Z,102826.97
2024-02-18T02:56:22.431Z,102822.09
2024-02-18T02:58:52.265Z,102838.66
2024-02-18T03:01:24.817Z,102825.88
2024-02-18T03:03:54.921Z,102820.44
2024-02-18T03:06:24.887Z,102815.84
2024-02-18T03:08:54.820Z,102815.28
2024-02-18T03:11:24.738Z,102809.84
2024-02-18T03:13:57.482Z,102815.28
2024-02-18T03:16:30.004Z,102817.47
2024-02-18T03:19:00.092Z,102810.41
2024-02-18T03:21:30.514Z,102802.50
2024-02-18T03:24:00.733Z,102799.50
2024-02-18T03:26:31.118Z,102792.44
2024-02-18T03:29:00.939Z,102802.19
2024-02-18T03:31:34.413Z,102795.94
2024-02-18T03:34:04.346Z,102791.34
2024-02-18T03:36:35.075Z,102791.06
2024-02-18T03:39:05.130Z,102783.44
2024-02-18T03:41:34.959Z,102789.44
2024-02-18T03:44:04.779Z,102787.81
2024-02-18T03:46:37.241Z,102786.47
2024-02-18T03:49:07.173Z,102785.63
2024-02-18T03:51:37.036Z,102781.84
2024-02-18T03:54:07.225Z,102773.13
2024-02-18T03:56:37.156Z,102772.31
2024-02-18T03:59:04.390Z,102773.44
2024-02-18T04:01:36.838Z,102771.81
2024-02-18T04:04:10.219Z,102768.81
2024-02-18T04:06:40.583Z,102762.56
2024-02-18T04:09:12.779Z,102755.75
2024-02-18T04:11:43.197Z,102759.28
2024-02-18T04:14:13.113Z,102756.28
2024-02-18T04:16:45.612Z,102754.94
2024-02-18T04:19:15.785Z,102749.75
2024-02-18T04:21:45.733Z,102737.25
2024-02-18T04:24:15.800Z,102744.88
2024-02-18T04:26:45.711Z,102738.88
2024-02-18T04:29:15.505Z,102741.06
2024-02-18T04:31:48.007Z,102734.56
2024-02-18T04:34:18.189Z,102730.75
2024-02-18T04:36:50.617Z,102721.47
2024-02-18T04:39:20.736Z,102723.13
2024-02-18T04:41:50.708Z,102720.94
2024-02-18T04:44:21.005Z,102722.59
2024-02-18T04:46:53.486Z,102707.91
2024-02-18T04:49:23.475Z,102703.56
2024-02-18T04:51:56.658Z,102696.50
2024-02-18T04:54:27.398Z,102700.28
2024-02-18T04:56:57.249Z,102701.09
2024-02-18T04:59:27.137Z,102701.91
2024-02-18T05:01:59.717Z,102700.28
2024-02-18T05:04:31.014Z,102689.13
2024-02-18T05:07:01.557Z,102703.00
2024-02-18T05:09:31.515Z,102698.09
2024-02-18T05:12:01.589Z,102695.13
2024-02-18T05:14:31.418Z,102693.22
2024-02-18T05:17:03.914Z,102694.31
2024-02-18T05:19:33.733Z,102686.41
2024-02-18T05:22:04.628Z,102691.03
2024-02-18T05:24:35.901Z,102690.22
2024-02-18T05:27:05.812Z,102689.41
2024-02-18T05:29:35.684Z,102680.72
2024-02-18T05:32:09.174Z,102679.59
2024-02-18T05:34:39.305Z,102676.34
2024-02-18T05:37:09.332Z,102674.16
2024-02-18T05:39:39.298Z,102675.25
2024-02-18T05:42:09.878Z,102670.91
2024-02-18T05:44:39.797Z,102673.63
2024-02-18T05:47:12.369Z,102661.69
2024-02-18T05:49:44.224Z,102666.03
2024-02-18T05:52:14.824Z,102652.44
2024-02-18T05:54:44.764Z,102655.16
2024-02-18T05:57:14.666Z,102651.34
2024-02-18T05:59:44.481Z,102652.69
2024-02-18T06:02:17.243Z,102651.34
2024-02-18T06:04:47.027Z,102650.25
2024-02-18T06:07:16.997Z,102647.53
2024-02-18T06:09:47.279Z,102640.47
2024-02-18T06:12:17.676Z,102642.94
2024-02-18T06:14:47.618Z,102638.31
2024-02-18T06:17:20.316Z,102627.97
2024-02-18T06:19:50.258Z,102630.16
2024-02-18T06:22:20.371Z,102618.75
2024-02-18T06:24:50.490Z,102622.00
2024-02-18T06:27:20.364Z,102623.63
2024-02-18T06:29:50.444Z,102615.75
2024-02-18T06:32:22.913Z,102612.50
2024-02-18T06:34:52.938Z,102611.69
2024-02-18T06:37:22.885Z,102615.50
2024-02-18T06:39:52.756Z,102609.78
2024-02-18T06:42:22.809Z,102614.38
2024-02-18T06:44:52.956Z,102612.22
2024-02-18T06:47:25.504Z,102610.59
2024-02-18T06:49:55.580Z,102599.47
2024-02-18T06:52:28.312Z,102592.41
2024-02-18T06:54:58.286Z,102590.75
2024-02-18T06:57:28.180Z,102582.63
2024-02-18T06:59:58.606Z,102573.66
2024-02-18T07:02:31.140Z,102580.72
2024-02-18T07:05:01.413Z,102576.94
2024-02-18T07:07:31.370Z,102576.13
2024-02-18T07:10:01.381Z,102576.13
2024-02-18T07:12:33.552Z,102566.06
2024-02-18T07:15:03.536Z,102554.13
2024-02-18T07:17:36.067Z,102552.75
2024-02-18T07:20:06.213Z,102560.91
2024-02-18T07:22:36.054Z,102552.50
2024-02-18T07:25:08.398Z,102553.84
2024-02-18T07:27:39.410Z,102550.84
2024-02-18T07:30:11.014Z,102545.41
2024-02-18T07:32:50.855Z,102545.69
2024-02-18T07:35:20.689Z,102533.19
2024-02-18T07:37:50.664Z,102524.25
2024-02-18T07:40:20.445Z,102526.97
2024-02-18T07:42:50.349Z,102523.16
2024-02-18T07:45:20.235Z,102529.13
2024-02-18T07:47:52.763Z,102516.38
2024-02-18T07:50:22.880Z,102531.28
2024-02-18T07:52:52.726Z,102527.50
2024-02-18T07:55:26.068Z,102527.78
2024-02-18T07:57:55.915Z,102516.91
2024-02-18T08:00:26.180Z,102514.19
2024-02-18T08:03:01.260Z,102508.50
2024-02-18T08:05:31.289Z,102506.88
2024-02-18T08:08:01.131Z,102497.63
2024-02-18T08:10:31.229Z,102509.28
2024-02-18T08:13:01.032Z,102496.56
2024-02-18T08:15:33.709Z,102499.78
2024-02-18T08:18:06.734Z,102498.19
2024-02-18T08:20:39.778Z,102497.63
2024-02-18T08:23:11.051Z,102486.75
2024-02-18T08:25:40.950Z,102482.41
2024-02-18T08:28:12.336Z,102481.34
2024-02-18T08:30:42.220Z,102473.75
2024-02-18T08:33:14.910Z,102474.56
2024-02-18T08:35:44.861Z,102470.47
2024-02-18T08:38:14.790Z,102455.56
2024-02-18T08:40:44.664Z,102458.28
2024-02-18T08:43:14.857Z,102450.94
2024-02-18T08:45:44.758Z,102450.41
2024-02-18T08:48:17.458Z,102447.13
2024-02-18T08:50:47.292Z,102443.34
2024-02-18T08:53:17.091Z,102437.09
2024-02-18T08:55:48.458Z,102437.38
2024-02-18T08:58:18.634Z,102434.94
2024-02-18T09:00:49.447Z,102428.97
2024-02-18T09:03:22.110Z,102429.78
2024-02-18T09:05:51.973Z,102417.28
2024-02-18T09:08:21.828Z,102416.47
2024-02-18T09:10:55.129Z,102419.44
2024-02-18T09:13:25.355Z,102420.00
2024-02-18T09:15:55.497Z,102410.22
2024-02-18T09:18:29.335Z,102406.16
2024-02-18T09:20:59.370Z,102396.66
2024-02-18T09:23:29.145Z,102391.22
2024-02-18T09:25:59.289Z,102395.56
2024-02-18T09:28:31.336Z,102388.50
2024-02-18T09:31:04.090Z,102391.50
2024-02-18T09:33:37.001Z,102383.88
2024-02-18T09:36:07.436Z,102389.06
2024-02-18T09:38:42.639Z,102385.53
2024-02-18T09:41:19.922Z,102371.13
2024-02-18T09:43:51.260Z,102368.97
2024-02-18T09:46:23.392Z,102358.38
2024-02-18T09:48:56.142Z,102357.56
2024-02-18T09:51:27.444Z,102345.06
2024-02-18T09:53:58.835Z,102345.06
2024-02-18T09:56:29.401Z,102346.16
2024-02-18T09:58:59.289Z,102349.41
2024-02-18T10:01:29.607Z,102346.16
2024-02-18T10:04:02.372Z,102339.34
2024-02-18T10:06:32.671Z,102343.97
2024-02-18T10:09:04.063Z,102341.78
2024-02-18T10:11:34.176Z,102339.63
2024-02-18T10:14:07.533Z,102330.97
2024-02-18T10:16:38.189Z,102333.13
2024-02-18T10:19:13.312Z,102330.16
2024-02-18T10:21:44.869Z,102332.06
2024-02-18T10:24:16.322Z,102327.97
2024-02-18T10:26:46.863Z,102326.63
2024-02-18T10:29:16.858Z,102319.00
2024-02-18T10:31:46.655Z,102315.75
2024-02-18T10:34:19.467Z,102310.59
2024-02-18T10:36:51.496Z,102305.66
2024-02-18T10:39:24.609Z,102311.63
2024-02-18T10:42:03.486Z,102304.88
2024-02-18T10:44:36.066Z,102291.00
2024-02-18T10:47:06.706Z,102288.56
2024-02-18T10:49:42.490Z,102291.28
2024-02-18T10:52:22.970Z,102280.66
2024-02-18T10:55:06.093Z,102277.72
2024-02-18T10:57:50.040Z,102276.91
2024-02-18T11:00:21.488Z,102270.38
2024-02-18T11:02:56.884Z,102274.47
2024-02-18T11:05:36.208Z,102258.22
2024-02-18T11:08:06.995Z,102244.63
2024-02-18T11:10:38.509Z,102258.19
2024-02-18T11:13:09.216Z,102245.97
2024-02-18T11:15:40.318Z,102242.44
2024-02-18T11:18:12.673Z,102240.81
2024-02-18T11:20:46.037Z,102246.25
2024-02-18T11:23:15.938Z,102243.53
2024-02-18T11:25:46.516Z,102238.09
2024-02-18T11:28:16.905Z,102238.09
2024-02-18T11:30:47.182Z,102235.91
2024-02-18T11:33:20.658Z,102237.81
2024-02-18T11:36:13.856Z,102230.53
2024-02-18T11:38:50.209Z,102219.63
2024-02-18T11:41:21.822Z,102220.72
2024-02-18T11:43:56.017Z,102207.72
2024-02-18T11:46:28.240Z,102202.28
2024-02-18T11:49:01.531Z,102197.16
2024-02-18T11:51:35.033Z,102187.16
2024-02-18T11:54:09.738Z,102180.59
2024-02-18T11:56:39.823Z,102163.00
2024-02-18T11:59:09.966Z,102157.00
2024-02-18T12:01:40.602Z,102154.25
2024-02-18T12:04:10.729Z,102145.88
2024-02-18T12:06:43.697Z,102125.47
2024-02-18T12:09:17.810Z,102124.16
2024-02-18T12:11:48.440Z,102120.06
2024-02-18T12:14:21.804Z,102092.09
2024-02-18T12:16:52.153Z,102097.25
2024-02-18T12:19:22.463Z,102080.13
2024-02-18T12:22:00.468Z,102074.72
2024-02-18T12:24:30.528Z,102064.38
2024-02-18T12:27:00.386Z,102075.25
2024-02-18T12:29:30.437Z,102063.03
2024-02-18T12:32:00.388Z,102038.88
2024-02-18T12:34:31.131Z,102038.88
2024-02-18T12:37:05.212Z,102030.19
2024-02-18T12:39:38.654Z,102011.25
2024-02-18T12:42:10.634Z,102002.56
2024-02-18T12:45:24.314Z,102018.31
2024-02-18T12:47:30.599Z,101993.66
2024-02-18T12:50:07.597Z,101994.22
2024-02-18T12:52:42.501Z,101986.34
2024-02-18T12:55:14.365Z,101964.34
2024-02-18T12:57:44.589Z,101954.84
2024-02-18T13:00:16.744Z,101955.69
2024-02-18T13:02:48.116Z,101963.53
2024-02-18T13:05:19.075Z,101948.28
2024-02-18T13:07:59.109Z,101955.38
2024-02-18T13:10:28.995Z,101953.19
2024-02-18T13:12:58.973Z,101933.91
2024-02-18T13:15:29.267Z,101930.38
2024-02-18T13:17:59.221Z,101928.19
2024-02-18T13:20:29.097Z,101933.06
2024-02-18T13:23:01.728Z,101928.19
2024-02-18T13:25:31.587Z,101919.50
2024-02-18T13:28:01.622Z,101922.44
2024-02-18T13:30:31.572Z,101909.19
2024-02-18T13:33:01.590Z,101901.31
2024-02-18T13:35:31.491Z,101882.44
2024-02-18T13:38:04.072Z,101892.38
2024-02-18T13:40:33.971Z,101887.25
2024-02-18T13:43:04.913Z,101903.25
2024-02-18T13:45:34.868Z,101896.16
2024-02-18T13:48:04.879Z,101901.59
2024-02-18T13:50:34.762Z,101902.09
2024-02-18T13:53:08.255Z,101908.06
2024-02-18T13:55:38.144Z,101896.69
2024-02-18T13:58:08.104Z,101894.25
2024-02-18T14:00:38.076Z,101902.69
2024-02-18T14:03:08.354Z,101893.19
2024-02-18T14:05:38.468Z,101889.50
2024-02-18T14:08:11.210Z,101882.19
2024-02-18T14:10:41.084Z,101876.25
2024-02-18T14:13:12.597Z,101874.13
2024-02-18T14:15:42.727Z,101869.31
2024-02-18T14:18:15.028Z,101872.88
2024-02-18T14:20:46.417Z,101855.78
2024-02-18T14:23:18.880Z,101853.06
2024-02-18T14:25:48.774Z,101837.91
2024-02-18T14:28:18.759Z,101833.13
2024-02-18T14:30:49.686Z,101826.31
2024-02-18T14:33:19.947Z,101824.44
2024-02-18T14:35:50.043Z,101821.47
2024-02-18T14:38:22.570Z,101807.91
2024-02-18T14:40:52.461Z,101795.75
2024-02-18T14:43:22.415Z,101795.25
2024-02-18T14:45:52.316Z,101791.66
2024-02-18T14:48:23.917Z,101771.38
2024-02-18T14:50:53.865Z,101772.47
2024-02-18T14:53:26.373Z,101770.78
2024-02-18T14:56:00.835Z,101767.81
2024-02-18T14:58:30.829Z,101754.53
2024-02-18T15:01:02.041Z,101765.38
2024-02-18T15:03:31.997Z,101754.53
2024-02-18T15:06:02.416Z,101744.22
2024-02-18T15:08:35.197Z,101757.19
2024-02-18T15:11:05.230Z,101741.72
2024-02-18T15:13:35.185Z,101730.06
2024-02-18T15:16:07.192Z,101748.75
2024-02-18T15:18:39.300Z,101729.09
2024-02-18T15:21:12.738Z,101713.81
2024-02-18T15:23:45.260Z,101728.47
2024-02-18T15:26:15.162Z,101731.13
2024-02-18T15:28:44.999Z,101742.50
2024-02-18T15:31:15.358Z,101737.66
2024-02-18T15:33:46.134Z,101702.97
2024-02-18T15:36:16.092Z,101684.50
2024-02-18T15:38:48.917Z,101686.41
2024-02-18T15:41:18.808Z,101724.31
2024-02-18T15:43:48.628Z,101713.97
2024-02-18T15:46:21.724Z,101705.50
2024-02-18T15:48:51.632Z,101706.59
2024-02-18T15:51:21.694Z,101689.72
2024-02-18T15:53:54.352Z,101692.41
2024-02-18T15:56:25.404Z,101693.44
2024-02-18T15:58:58.894Z,101689.03
2024-02-18T16:01:29.545Z,101686.28
2024-02-18T16:03:59.663Z,101678.06
2024-02-18T16:06:36.956Z,101675.88
2024-02-18T16:09:10.487Z,101678.00
2024-02-18T16:11:40.462Z,101670.09
2024-02-18T16:14:10.444Z,101666.50
2024-02-18T16:16:40.404Z,101667.53
2024-02-18T16:19:10.613Z,101679.19
2024-02-18T16:21:40.676Z,101679.41
2024-02-18T16:24:13.253Z,101652.81
2024-02-18T16:26:43.943Z,101670.09
2024-02-18T16:29:14.562Z,101673.84
2024-02-18T16:31:45.092Z,101673.84
2024-02-18T16:34:15.011Z,101674.38
2024-02-18T16:36:46.686Z,101677.59
2024-02-18T16:39:19.587Z,101682.75
2024-02-18T16:41:49.730Z,101689.50
2024-02-18T16:44:20.012Z,101688.63
2024-02-18T16:46:52.714Z,101693.25
2024-02-18T16:49:22.709Z,101692.66
2024-02-18T16:51:53.353Z,101690.97
2024-02-18T16:54:26.116Z,101695.50
2024-02-18T16:56:57.455Z,101697.91
2024-02-18T16:59:27.422Z,101694.63
2024-02-18T17:01:58.344Z,101687.50
2024-02-18T17:04:28.357Z,101688.03
2024-02-18T17:06:58.816Z,101691.75
2024-02-18T17:09:31.507Z,101686.06
2024-02-18T17:12:02.183Z,101693.59
2024-02-18T17:14:32.104Z,101681.31
2024-02-18T17:17:02.260Z,101688.91
2024-02-18T17:19:32.612Z,101685.38
2024-02-18T17:22:02.679Z,101691.31
2024-02-18T17:24:38.360Z,101689.63
2024-02-18T17:27:09.342Z,101688.22
2024-02-18T17:29:39.273Z,101688.22
2024-02-18T17:32:10.969Z,101708.56
2024-02-18T17:34:40.797Z,101686.50
2024-02-18T17:37:11.000Z,101685.63
2024-02-18T17:39:44.316Z,101710.59
2024-02-18T17:42:18.388Z,101700.53
2024-02-18T17:44:48.706Z,101704.09
2024-02-18T17:47:18.904Z,101714.72
2024-02-18T17:49:48.849Z,101728.91
2024-02-18T17:52:21.013Z,101726.84
2024-02-18T17:54:53.616Z,101716.88
2024-02-18T17:57:23.479Z,101734.94
2024-02-18T17:59:55.029Z,101737.34
2024-02-18T18:02:27.481Z,101740.53
2024-02-18T18:04:57.542Z,101744.47
2024-02-18T18:07:27.646Z,101734.72
2024-02-18T18:10:04.013Z,101741.78
2024-02-18T18:12:34.044Z,101737.66
2024-02-18T18:15:05.070Z,101737.66
2024-02-18T18:17:35.024Z,101743.00
2024-02-18T18:20:06.023Z,101740.34
2024-02-18T18:22:36.491Z,101750.13
2024-02-18T18:25:11.384Z,101749.00
2024-02-18T18:27:41.365Z,101746.31
2024-02-18T18:30:12.266Z,101751.28
2024-02-18T18:32:42.146Z,101758.66
2024-02-18T18:35:12.574Z,101768.56
2024-02-18T18:37:42.856Z,101764.44
2024-02-18T18:40:16.574Z,101775.47
2024-02-18T18:42:46.519Z,101777.00
2024-02-18T18:45:16.552Z,101781.94
2024-02-18T18:47:50.337Z,101792.66
2024-02-18T18:50:22.066Z,101799.69
2024-02-18T18:52:52.867Z,101790.81
2024-02-18T18:55:25.303Z,101788.44
2024-02-18T18:57:56.678Z,101800.31
2024-02-18T19:00:29.595Z,101815.56
2024-02-18T19:02:59.718Z,101816.16
2024-02-18T19:05:29.804Z,101816.72
2024-02-18T19:07:59.863Z,101811.28
2024-02-18T19:10:36.101Z,101824.34
2024-02-18T19:13:18.526Z,101809.38
2024-02-18T19:15:57.775Z,101826.69
2024-02-18T19:18:27.809Z,101835.81
2024-02-18T19:20:57.735Z,101837.44
2024-02-18T19:23:27.728Z,101850.03
2024-02-18T19:26:00.188Z,101834.72
2024-02-18T19:28:30.057Z,101837.50
2024-02-18T19:30:59.891Z,101841.16
2024-02-18T19:33:29.878Z,101836.03
2024-02-18T19:35:59.951Z,101843.88
2024-02-18T19:38:29.866Z,101848.22
2024-02-18T19:41:01.210Z,101848.47
2024-02-18T19:43:31.150Z,101846.53
2024-02-18T19:46:01.043Z,101850.38
2024-02-18T19:48:31.071Z,101853.03
2024-02-18T19:51:01.040Z,101859.47
2024-02-18T19:53:31.739Z,101847.94
2024-02-18T19:56:04.760Z,101855.22
2024-02-18T19:58:34.630Z,101856.47
2024-02-18T20:01:04.685Z,101863.31
2024-02-18T20:03:34.759Z,101860.88
2024-02-18T20:06:05.112Z,101854.19
2024-02-18T20:08:38.765Z,101862.78
2024-02-18T20:11:11.632Z,101874.22
2024-02-18T20:13:41.713Z,101872.56
2024-02-18T20:16:11.980Z,101876.88
2024-02-18T20:18:42.145Z,101870.13
2024-02-18T20:21:12.157Z,101885.03
2024-02-18T20:23:42.086Z,101875.28
2024-02-18T20:26:23.258Z,101884.59
2024-02-18T20:28:53.135Z,101892.22
2024-02-18T20:31:24.308Z,101887.34
2024-02-18T20:33:55.239Z,101893.84
2024-02-18T20:36:25.401Z,101887.81
2024-02-18T20:38:56.884Z,101893.84
2024-02-18T20:41:29.518Z,101908.56
2024-02-18T20:44:00.854Z,101905.91
2024-02-18T20:46:30.733Z,101904.34
2024-02-18T20:49:00.782Z,101910.03
2024-02-18T20:51:30.967Z,101907.31
2024-02-18T20:54:01.804Z,101911.97
2024-02-18T20:56:34.281Z,101912.28
2024-02-18T20:59:04.296Z,101917.41
2024-02-18T21:01:34.368Z,101919.63
2024-02-18T21:04:05.151Z,101932.91
2024-02-18T21:06:36.263Z,101925.59
2024-02-18T21:09:08.108Z,101928.88
2024-02-18T21:11:40.627Z,101928.88
2024-02-18T21:14:10.612Z,101919.63
2024-02-18T21:16:40.588Z,101925.03
2024-02-18T21:19:10.564Z,101930.00
2024-02-18T21:21:44.097Z,101928.47
2024-02-18T21:24:14.043Z,101927.59
2024-02-18T21:26:46.537Z,101932.22
2024-02-18T21:29:16.420Z,101927.28
2024-02-18T21:31:46.267Z,101943.13
2024-02-18T21:34:16.319Z,101935.78
2024-02-18T21:36:46.532Z,101938.25
2024-02-18T21:39:16.488Z,101941.50
2024-02-18T21:41:51.791Z,101926.00
2024-02-18T21:44:21.651Z,101939.56
2024-02-18T21:46:52.210Z,101940.63
2024-02-18T21:49:22.148Z,101938.16
2024-02-18T21:51:52.031Z,101927.28
2024-02-18T21:54:22.105Z,101925.72
2024-02-18T21:56:59.041Z,101937.16
2024-02-18T21:59:33.186Z,101940.44
2024-02-18T22:02:05.846Z,101948.53
2024-02-18T22:04:42.048Z,101962.13
2024-02-18T22:07:25.669Z,101964.84
2024-02-18T22:09:56.985Z,101967.03
2024-02-18T22:12:41.158Z,101979.25
2024-02-18T22:15:13.101Z,101983.66
2024-02-18T22:17:44.091Z,101998.06
2024-02-18T22:20:22.390Z,101994.84
2024-02-18T22:22:52.297Z,101990.44
2024-02-18T22:25:22.483Z,101994.28
2024-02-18T22:27:58.008Z,101993.22
2024-02-18T22:30:28.907Z,101988.38
2024-02-18T22:33:13.200Z,102000.81
2024-02-18T22:35:46.072Z,101997.56
2024-02-18T22:38:19.316Z,102002.50
2024-02-18T22:41:01.751Z,102012.16
2024-02-18T22:43:39.589Z,102008.09
2024-02-18T22:46:09.804Z,102010.53
2024-02-18T22:48:44.448Z,102026.47
2024-02-18T22:51:14.381Z,102029.97
2024-02-18T22:56:31.753Z,102028.88
2024-02-18T22:59:04.682Z,102035.63
2024-02-18T23:01:36.256Z,102046.78
2024-02-18T23:04:06.922Z,102047.31
2024-02-18T23:06:40.456Z,102061.94
2024-02-18T23:09:11.432Z,102062.47
2024-02-18T23:11:41.761Z,102071.94
2024-02-18T23:14:14.297Z,102068.16
2024-02-18T23:16:44.742Z,102080.34
2024-02-18T23:19:15.187Z,102088.50
2024-02-18T23:21:48.017Z,102098.78
2024-02-18T23:24:18.525Z,102097.16
2024-02-18T23:26:48.946Z,102108.28
2024-02-18T23:29:21.997Z,102105.34
2024-02-18T23:31:52.255Z,102108.03
2024-02-18T23:34:25.321Z,102107.22
2024-02-18T23:36:59.695Z,102110.78
2024-02-18T23:39:30.981Z,102115.16
2024-02-18T23:42:01.308Z,102121.69
2024-02-18T23:44:35.112Z,102126.03
2024-02-18T23:47:05.300Z,102132.00
2024-02-18T23:49:38.951Z,102137.44
2024-02-18T23:52:09.986Z,102148.31
2024-02-18T23:54:40.061Z,102145.38
2024-02-18T23:57:10.404Z,102150.53
2024-02-18T23:59:43.072Z,102161.94
